Adak, AK

9:02 AM HST on February 20, 2017 (GMT -1000)
Adak | | Change Station

Elev 16 ft 51.88 °N, 176.65 °W | Updated 6 minutes ago

Overcast
Overcast
37 °F
Feels Like 29 °F
N
13
Wind Variable Wind from SSW
Gusts 24 mph

Today
High -- | Low -- °F
--% Chance of Precip.
Yesterday
High -- | Low -- °F
Precip. -- in
Pressure 29.22 in
Visibility 10.0 miles
Clouds Mostly Cloudy 3600 ft
Mostly Cloudy 4100 ft
Overcast 4900 ft
Windchill 29 °F
Dew Point 23 °F
Humidity 56%
Rainfall 0.29 in
Snow Depth Not available.
8:50 AM 7:11 PM
Waning Crescent, 32% visible
METAR PADK 201856Z AUTO 21011G21KT 10SM BKN036 BKN041 OVC049 03/M05 A2922 RMK AO1
Pressure 29.22 in
Visibility 10.0 miles
Clouds Mostly Cloudy 3600 ft
Mostly Cloudy 4100 ft
Overcast 4900 ft
Windchill 29 °F
Dew Point 23 °F
Humidity 56%
Rainfall 0.29 in
Snow Depth Not available.
8:50 AM 7:11 PM
Waning Crescent, 32% visible
METAR PADK 201856Z AUTO 21011G21KT 10SM BKN036 BKN041 OVC049 03/M05 A2922 RMK AO1

Get Your Daily Forecast Email!

Thanks for signing up!

Be on the lookout for a verification email in your inbox.

You'll start receiving the daily forecast at 8 AM.

×

10-Day Weather Forecast

Almanac

Astronomy

Feb. 20, 2017 Rise Set
Actual Time
Civil Twilight
Nautical Twilight
Astronomical Twilight
Moon
Length of Visible Light
Length of Day
Tomorrow will be .
, % of the Moon is Illuminated

Today's Extremes

State Highs State Lows

Community

WunderPhotos

Upload Photos

1,962,540 photos uploaded!

WunderBlog® & News

Nearby

Air Quality

  Air Quality AQ Index Pollutant
Not available.

Snow Depth

Station Depth Elevation

Earthquake Activity

City Distance Mag. Time & Date
Minimum magnitude displayed is 2.5.

Coastal Water Temperatures

Place Temperature

Stations

Nearby Weather Stations

Station Location Temp. Windchill Dew Point Humidity Wind Precip. Elev Updated Type
                   

Watches & Warnings

There are currently no watches in effect.